sensor_id;sensor_type;location;lat;lon;timestamp;P1;durP1;ratioP1;P2;durP2;ratioP2
17844;SDS011;9047;53.486;10.218;2023-04-01T00:00:11;11.43;;;5.50;;
17844;SDS011;9047;53.486;10.218;2023-04-01T00:02:41;13.63;;;5.43;;
17844;SDS011;9047;53.486;10.218;2023-04-01T00:05:09;10.20;;;5.95;;
17844;SDS011;9047;53.486;10.218;2023-04-01T00:07:37;11.75;;;5.93;;
17844;SDS011;9047;53.486;10.218;2023-04-01T00:10:09;15.05;;;5.47;;
17844;SDS011;9047;53.486;10.218;2023-04-01T00:12:39;12.45;;;5.65;;
17844;SDS011;9047;53.486;10.218;2023-04-01T00:15:08;11.27;;;5.97;;
17844;SDS011;9047;53.486;10.218;2023-04-01T00:17:45;12.65;;;5.60;;
17844;SDS011;9047;53.486;10.218;2023-04-01T00:20:12;11.50;;;5.55;;
17844;SDS011;9047;53.486;10.218;2023-04-01T00:22:42;11.73;;;5.90;;
17844;SDS011;9047;53.486;10.218;2023-04-01T00:25:10;12.90;;;5.70;;
17844;SDS011;9047;53.486;10.218;2023-04-01T00:27:40;11.82;;;5.60;;
17844;SDS011;9047;53.486;10.218;2023-04-01T00:30:10;11.85;;;5.30;;
17844;SDS011;9047;53.486;10.218;2023-04-01T00:32:40;13.07;;;5.90;;
17844;SDS011;9047;53.486;10.218;2023-04-01T00:35:12;11.13;;;5.55;;
17844;SDS011;9047;53.486;10.218;2023-04-01T00:37:42;14.15;;;5.40;;
17844;SDS011;9047;53.486;10.218;2023-04-01T00:40:11;14.20;;;5.97;;
17844;SDS011;9047;53.486;10.218;2023-04-01T00:42:52;11.43;;;5.75;;
17844;SDS011;9047;53.486;10.218;2023-04-01T00:48:08;13.20;;;5.60;;
17844;SDS011;9047;53.486;10.218;2023-04-01T00:50:44;13.00;;;5.68;;
17844;SDS011;9047;53.486;10.218;2023-04-01T00:53:14;14.07;;;5.22;;
17844;SDS011;9047;53.486;10.218;2023-04-01T00:55:49;12.32;;;6.03;;
17844;SDS011;9047;53.486;10.218;2023-04-01T00:58:24;15.02;;;6.03;;
17844;SDS011;9047;53.486;10.218;2023-04-01T01:00:55;14.70;;;6.00;;
17844;SDS011;9047;53.486;10.218;2023-04-01T01:03:26;13.82;;;5.80;;
17844;SDS011;9047;53.486;10.218;2023-04-01T01:09:02;14.60;;;6.47;;
17844;SDS011;9047;53.486;10.218;2023-04-01T01:11:50;15.68;;;5.97;;
17844;SDS011;9047;53.486;10.218;2023-04-01T01:14:32;18.30;;;6.80;;
17844;SDS011;9047;53.486;10.218;2023-04-01T01:17:08;16.85;;;6.78;;
17844;SDS011;9047;53.486;10.218;2023-04-01T01:19:55;12.90;;;6.18;;
17844;SDS011;9047;53.486;10.218;2023-04-01T01:25:32;14.27;;;6.05;;
17844;SDS011;9047;53.486;10.218;2023-04-01T01:31:02;16.50;;;5.78;;
17844;SDS011;9047;53.486;10.218;2023-04-01T01:33:42;10.57;;;5.28;;
17844;SDS011;9047;53.486;10.218;2023-04-01T01:36:27;15.20;;;6.25;;
17844;SDS011;9047;53.486;10.218;2023-04-01T01:38:59;16.35;;;5.78;;
17844;SDS011;9047;53.486;10.218;2023-04-01T01:41:30;15.38;;;5.43;;
17844;SDS011;9047;53.486;10.218;2023-04-01T01:44:02;14.23;;;5.78;;
17844;SDS011;9047;53.486;10.218;2023-04-01T01:46:33;16.42;;;5.78;;
17844;SDS011;9047;53.486;10.218;2023-04-01T01:49:00;15.88;;;6.32;;
17844;SDS011;9047;53.486;10.218;2023-04-01T01:51:36;17.33;;;6.03;;
17844;SDS011;9047;53.486;10.218;2023-04-01T01:54:04;14.57;;;6.57;;
17844;SDS011;9047;53.486;10.218;2023-04-01T01:56:35;15.93;;;6.20;;
17844;SDS011;9047;53.486;10.218;2023-04-01T01:59:08;15.18;;;6.00;;
17844;SDS011;9047;53.486;10.218;2023-04-01T02:01:38;15.23;;;5.57;;
17844;SDS011;9047;53.486;10.218;2023-04-01T02:04:07;15.63;;;5.45;;
17844;SDS011;9047;53.486;10.218;2023-04-01T02:06:41;19.05;;;5.90;;
17844;SDS011;9047;53.486;10.218;2023-04-01T02:09:12;12.75;;;5.38;;
17844;SDS011;9047;53.486;10.218;2023-04-01T02:11:41;17.17;;;5.60;;
17844;SDS011;9047;53.486;10.218;2023-04-01T02:14:16;13.30;;;5.72;;
17844;SDS011;9047;53.486;10.218;2023-04-01T02:16:51;13.60;;;5.68;;
17844;SDS011;9047;53.486;10.218;2023-04-01T02:19:25;11.43;;;5.38;;
17844;SDS011;9047;53.486;10.218;2023-04-01T02:22:01;18.30;;;6.25;;
17844;SDS011;9047;53.486;10.218;2023-04-01T02:24:30;10.15;;;5.00;;
17844;SDS011;9047;53.486;10.218;2023-04-01T02:27:01;16.23;;;5.43;;
17844;SDS011;9047;53.486;10.218;2023-04-01T02:29:29;14.00;;;5.20;;
17844;SDS011;9047;53.486;10.218;2023-04-01T02:31:58;14.90;;;5.43;;
17844;SDS011;9047;53.486;10.218;2023-04-01T02:34:36;13.18;;;5.13;;
17844;SDS011;9047;53.486;10.218;2023-04-01T02:37:05;10.57;;;4.80;;
17844;SDS011;9047;53.486;10.218;2023-04-01T02:39:33;12.70;;;5.55;;
17844;SDS011;9047;53.486;10.218;2023-04-01T02:42:05;12.30;;;5.50;;
17844;SDS011;9047;53.486;10.218;2023-04-01T02:44:34;9.95;;;5.00;;
17844;SDS011;9047;53.486;10.218;2023-04-01T02:47:01;11.95;;;5.68;;
17844;SDS011;9047;53.486;10.218;2023-04-01T02:49:32;14.68;;;5.60;;
17844;SDS011;9047;53.486;10.218;2023-04-01T02:51:59;13.18;;;4.88;;
17844;SDS011;9047;53.486;10.218;2023-04-01T02:54:31;15.52;;;5.88;;
17844;SDS011;9047;53.486;10.218;2023-04-01T02:56:59;16.33;;;5.25;;
17844;SDS011;9047;53.486;10.218;2023-04-01T02:59:28;12.20;;;5.60;;
17844;SDS011;9047;53.486;10.218;2023-04-01T03:01:57;16.02;;;5.60;;
17844;SDS011;9047;53.486;10.218;2023-04-01T03:04:26;13.65;;;6.00;;
17844;SDS011;9047;53.486;10.218;2023-04-01T03:06:53;14.80;;;6.10;;
17844;SDS011;9047;53.486;10.218;2023-04-01T03:09:25;14.40;;;5.50;;
17844;SDS011;9047;53.486;10.218;2023-04-01T03:12:09;13.60;;;5.88;;
17844;SDS011;9047;53.486;10.218;2023-04-01T03:14:36;17.23;;;6.05;;
17844;SDS011;9047;53.486;10.218;2023-04-01T03:17:07;17.38;;;6.25;;
17844;SDS011;9047;53.486;10.218;2023-04-01T03:19:34;21.70;;;7.20;;
17844;SDS011;9047;53.486;10.218;2023-04-01T03:22:01;17.10;;;7.75;;
17844;SDS011;9047;53.486;10.218;2023-04-01T03:24:30;14.57;;;7.60;;
17844;SDS011;9047;53.486;10.218;2023-04-01T03:26:59;20.75;;;8.00;;
17844;SDS011;9047;53.486;10.218;2023-04-01T03:29:27;20.88;;;7.95;;
17844;SDS011;9047;53.486;10.218;2023-04-01T03:31:55;17.13;;;7.43;;
17844;SDS011;9047;53.486;10.218;2023-04-01T03:34:32;21.88;;;8.30;;
17844;SDS011;9047;53.486;10.218;2023-04-01T03:37:01;22.15;;;9.25;;
17844;SDS011;9047;53.486;10.218;2023-04-01T03:39:32;18.02;;;9.13;;
17844;SDS011;9047;53.486;10.218;2023-04-01T03:42:00;19.08;;;9.57;;
17844;SDS011;9047;53.486;10.218;2023-04-01T03:44:30;22.08;;;9.63;;
17844;SDS011;9047;53.486;10.218;2023-04-01T03:46:58;24.40;;;10.55;;
17844;SDS011;9047;53.486;10.218;2023-04-01T03:49:25;21.98;;;9.70;;
17844;SDS011;9047;53.486;10.218;2023-04-01T03:51:53;23.42;;;10.07;;
17844;SDS011;9047;53.486;10.218;2023-04-01T03:54:24;27.55;;;10.43;;
17844;SDS011;9047;53.486;10.218;2023-04-01T03:56:53;19.05;;;9.82;;
17844;SDS011;9047;53.486;10.218;2023-04-01T03:59:25;24.75;;;10.63;;
17844;SDS011;9047;53.486;10.218;2023-04-01T04:01:58;20.73;;;10.40;;
17844;SDS011;9047;53.486;10.218;2023-04-01T04:04:26;16.15;;;9.32;;
17844;SDS011;9047;53.486;10.218;2023-04-01T04:06:56;22.23;;;10.90;;
17844;SDS011;9047;53.486;10.218;2023-04-01T04:09:24;21.80;;;10.23;;
17844;SDS011;9047;53.486;10.218;2023-04-01T04:11:54;22.00;;;10.25;;
17844;SDS011;9047;53.486;10.218;2023-04-01T04:14:26;22.38;;;11.07;;
17844;SDS011;9047;53.486;10.218;2023-04-01T04:16:57;20.58;;;9.52;;
17844;SDS011;9047;53.486;10.218;2023-04-01T04:19:24;19.60;;;10.40;;
17844;SDS011;9047;53.486;10.218;2023-04-01T04:21:52;16.35;;;9.85;;
17844;SDS011;9047;53.486;10.218;2023-04-01T04:24:19;24.65;;;10.10;;
17844;SDS011;9047;53.486;10.218;2023-04-01T04:26:48;19.83;;;9.43;;
17844;SDS011;9047;53.486;10.218;2023-04-01T04:29:17;14.80;;;8.45;;
17844;SDS011;9047;53.486;10.218;2023-04-01T04:31:47;16.70;;;8.98;;
17844;SDS011;9047;53.486;10.218;2023-04-01T04:34:18;15.88;;;8.77;;
17844;SDS011;9047;53.486;10.218;2023-04-01T04:36:46;16.52;;;9.52;;
17844;SDS011;9047;53.486;10.218;2023-04-01T04:39:16;21.48;;;9.93;;
17844;SDS011;9047;53.486;10.218;2023-04-01T04:41:43;18.45;;;9.77;;
17844;SDS011;9047;53.486;10.218;2023-04-01T04:44:10;17.27;;;9.55;;
17844;SDS011;9047;53.486;10.218;2023-04-01T04:46:39;21.70;;;9.65;;
17844;SDS011;9047;53.486;10.218;2023-04-01T04:49:06;19.60;;;9.90;;
17844;SDS011;9047;53.486;10.218;2023-04-01T04:51:33;20.38;;;9.88;;
17844;SDS011;9047;53.486;10.218;2023-04-01T04:54:01;20.20;;;9.60;;
17844;SDS011;9047;53.486;10.218;2023-04-01T04:56:28;16.17;;;9.93;;
17844;SDS011;9047;53.486;10.218;2023-04-01T04:58:55;18.38;;;9.77;;
17844;SDS011;9047;53.486;10.218;2023-04-01T05:01:23;18.58;;;9.10;;
17844;SDS011;9047;53.486;10.218;2023-04-01T05:03:52;16.63;;;9.00;;
17844;SDS011;9047;53.486;10.218;2023-04-01T05:06:20;18.00;;;9.95;;
17844;SDS011;9047;53.486;10.218;2023-04-01T05:08:50;16.75;;;9.27;;
17844;SDS011;9047;53.486;10.218;2023-04-01T05:11:18;17.80;;;9.55;;
17844;SDS011;9047;53.486;10.218;2023-04-01T05:13:48;15.85;;;9.32;;
17844;SDS011;9047;53.486;10.218;2023-04-01T05:16:16;15.18;;;9.02;;
17844;SDS011;9047;53.486;10.218;2023-04-01T05:18:43;15.63;;;9.10;;
17844;SDS011;9047;53.486;10.218;2023-04-01T05:21:13;15.02;;;9.45;;
17844;SDS011;9047;53.486;10.218;2023-04-01T05:23:41;14.07;;;9.05;;
17844;SDS011;9047;53.486;10.218;2023-04-01T05:26:11;16.73;;;8.98;;
17844;SDS011;9047;53.486;10.218;2023-04-01T05:28:43;14.50;;;8.45;;
17844;SDS011;9047;53.486;10.218;2023-04-01T05:31:10;13.77;;;8.20;;
17844;SDS011;9047;53.486;10.218;2023-04-01T05:33:37;12.70;;;7.65;;
17844;SDS011;9047;53.486;10.218;2023-04-01T05:36:08;15.50;;;8.10;;
17844;SDS011;9047;53.486;10.218;2023-04-01T05:38:40;15.43;;;8.40;;
17844;SDS011;9047;53.486;10.218;2023-04-01T05:41:07;16.65;;;8.95;;
17844;SDS011;9047;53.486;10.218;2023-04-01T05:43:35;15.30;;;8.85;;
17844;SDS011;9047;53.486;10.218;2023-04-01T05:46:02;19.75;;;9.77;;
17844;SDS011;9047;53.486;10.218;2023-04-01T05:48:29;16.95;;;9.55;;
17844;SDS011;9047;53.486;10.218;2023-04-01T05:50:58;8.65;;;5.55;;
17844;SDS011;9047;53.486;10.218;2023-04-01T05:53:29;8.45;;;5.13;;
17844;SDS011;9047;53.486;10.218;2023-04-01T05:56:06;6.50;;;4.03;;
17844;SDS011;9047;53.486;10.218;2023-04-01T05:58:34;2.13;;;1.70;;
17844;SDS011;9047;53.486;10.218;2023-04-01T06:01:02;2.38;;;1.00;;
17844;SDS011;9047;53.486;10.218;2023-04-01T06:03:33;1.27;;;1.10;;
17844;SDS011;9047;53.486;10.218;2023-04-01T06:06:02;1.98;;;1.00;;
17844;SDS011;9047;53.486;10.218;2023-04-01T06:08:40;2.38;;;1.30;;
17844;SDS011;9047;53.486;10.218;2023-04-01T06:11:18;2.00;;;1.40;;
17844;SDS011;9047;53.486;10.218;2023-04-01T06:14:00;2.10;;;1.40;;
17844;SDS011;9047;53.486;10.218;2023-04-01T06:16:39;1.45;;;1.30;;
17844;SDS011;9047;53.486;10.218;2023-04-01T06:19:27;1.83;;;1.50;;
17844;SDS011;9047;53.486;10.218;2023-04-01T06:22:10;1.83;;;1.27;;
17844;SDS011;9047;53.486;10.218;2023-04-01T06:31:05;2.13;;;1.60;;
17844;SDS011;9047;53.486;10.218;2023-04-01T06:33:51;1.77;;;1.38;;
17844;SDS011;9047;53.486;10.218;2023-04-01T06:36:51;1.75;;;1.45;;
17844;SDS011;9047;53.486;10.218;2023-04-01T06:39:35;1.42;;;1.27;;
17844;SDS011;9047;53.486;10.218;2023-04-01T06:42:18;1.60;;;1.50;;
17844;SDS011;9047;53.486;10.218;2023-04-01T06:45:07;2.00;;;1.50;;
17844;SDS011;9047;53.486;10.218;2023-04-01T06:47:51;1.60;;;1.40;;
17844;SDS011;9047;53.486;10.218;2023-04-01T06:50:30;1.75;;;1.38;;
17844;SDS011;9047;53.486;10.218;2023-04-01T06:53:04;2.28;;;1.67;;
17844;SDS011;9047;53.486;10.218;2023-04-01T06:55:38;1.90;;;1.58;;
17844;SDS011;9047;53.486;10.218;2023-04-01T06:58:11;1.73;;;1.40;;
17844;SDS011;9047;53.486;10.218;2023-04-01T07:00:50;2.17;;;1.50;;
17844;SDS011;9047;53.486;10.218;2023-04-01T07:03:21;1.92;;;1.40;;
17844;SDS011;9047;53.486;10.218;2023-04-01T07:05:58;2.10;;;1.70;;
17844;SDS011;9047;53.486;10.218;2023-04-01T07:08:35;1.30;;;1.20;;
17844;SDS011;9047;53.486;10.218;2023-04-01T07:11:08;1.98;;;1.50;;
17844;SDS011;9047;53.486;10.218;2023-04-01T07:13:39;1.88;;;1.40;;
17844;SDS011;9047;53.486;10.218;2023-04-01T07:16:12;1.70;;;1.50;;
17844;SDS011;9047;53.486;10.218;2023-04-01T07:18:46;1.75;;;1.40;;
17844;SDS011;9047;53.486;10.218;2023-04-01T07:21:22;1.90;;;1.50;;
17844;SDS011;9047;53.486;10.218;2023-04-01T07:23:52;1.70;;;1.20;;
17844;SDS011;9047;53.486;10.218;2023-04-01T07:26:24;2.25;;;1.13;;
17844;SDS011;9047;53.486;10.218;2023-04-01T07:28:52;1.25;;;0.98;;
17844;SDS011;9047;53.486;10.218;2023-04-01T07:31:25;1.00;;;0.90;;
17844;SDS011;9047;53.486;10.218;2023-04-01T07:34:05;1.00;;;0.82;;
17844;SDS011;9047;53.486;10.218;2023-04-01T07:36:40;0.80;;;0.80;;
17844;SDS011;9047;53.486;10.218;2023-04-01T07:39:15;0.82;;;0.82;;
17844;SDS011;9047;53.486;10.218;2023-04-01T07:41:56;1.75;;;0.80;;
17844;SDS011;9047;53.486;10.218;2023-04-01T07:44:32;1.58;;;0.98;;
17844;SDS011;9047;53.486;10.218;2023-04-01T07:47:17;1.92;;;1.38;;
17844;SDS011;9047;53.486;10.218;2023-04-01T07:50:00;1.80;;;0.80;;
17844;SDS011;9047;53.486;10.218;2023-04-01T07:52:37;0.60;;;0.55;;
17844;SDS011;9047;53.486;10.218;2023-04-01T07:55:13;1.52;;;0.70;;
17844;SDS011;9047;53.486;10.218;2023-04-01T07:57:50;0.95;;;0.70;;
17844;SDS011;9047;53.486;10.218;2023-04-01T08:00:27;0.93;;;0.70;;
17844;SDS011;9047;53.486;10.218;2023-04-01T08:06:00;0.88;;;0.70;;
17844;SDS011;9047;53.486;10.218;2023-04-01T08:08:37;0.73;;;0.73;;
17844;SDS011;9047;53.486;10.218;2023-04-01T08:11:25;1.70;;;0.77;;
17844;SDS011;9047;53.486;10.218;2023-04-01T08:14:12;1.45;;;0.82;;
17844;SDS011;9047;53.486;10.218;2023-04-01T08:16:50;0.90;;;0.80;;
17844;SDS011;9047;53.486;10.218;2023-04-01T08:19:33;0.98;;;0.60;;
17844;SDS011;9047;53.486;10.218;2023-04-01T08:22:20;2.15;;;0.68;;
17844;SDS011;9047;53.486;10.218;2023-04-01T08:24:50;1.83;;;0.80;;
17844;SDS011;9047;53.486;10.218;2023-04-01T08:27:20;1.05;;;0.70;;
17844;SDS011;9047;53.486;10.218;2023-04-01T08:29:56;1.35;;;0.82;;
17844;SDS011;9047;53.486;10.218;2023-04-01T08:32:27;0.88;;;0.82;;
17844;SDS011;9047;53.486;10.218;2023-04-01T08:35:02;1.20;;;0.60;;
17844;SDS011;9047;53.486;10.218;2023-04-01T08:37:37;1.33;;;0.70;;
17844;SDS011;9047;53.486;10.218;2023-04-01T08:40:16;0.70;;;0.55;;
17844;SDS011;9047;53.486;10.218;2023-04-01T08:43:06;1.20;;;0.70;;
17844;SDS011;9047;53.486;10.218;2023-04-01T08:45:44;0.70;;;0.60;;
17844;SDS011;9047;53.486;10.218;2023-04-01T08:48:25;0.90;;;0.60;;
17844;SDS011;9047;53.486;10.218;2023-04-01T08:51:11;1.08;;;0.77;;
17844;SDS011;9047;53.486;10.218;2023-04-01T08:54:06;1.42;;;0.70;;
17844;SDS011;9047;53.486;10.218;2023-04-01T08:56:47;0.93;;;0.80;;
17844;SDS011;9047;53.486;10.218;2023-04-01T08:59:30;0.60;;;0.60;;
17844;SDS011;9047;53.486;10.218;2023-04-01T09:02:26;0.80;;;0.70;;
17844;SDS011;9047;53.486;10.218;2023-04-01T09:05:24;1.30;;;0.90;;
17844;SDS011;9047;53.486;10.218;2023-04-01T09:08:03;0.95;;;0.70;;
17844;SDS011;9047;53.486;10.218;2023-04-01T09:16:40;1.73;;;0.73;;
17844;SDS011;9047;53.486;10.218;2023-04-01T09:19:27;1.88;;;0.90;;
17844;SDS011;9047;53.486;10.218;2023-04-01T09:22:25;1.35;;;0.80;;
17844;SDS011;9047;53.486;10.218;2023-04-01T09:25:12;1.33;;;0.90;;
17844;SDS011;9047;53.486;10.218;2023-04-01T09:28:05;0.80;;;0.68;;
17844;SDS011;9047;53.486;10.218;2023-04-01T09:33:42;0.80;;;0.80;;
17844;SDS011;9047;53.486;10.218;2023-04-01T09:36:25;0.93;;;0.70;;
17844;SDS011;9047;53.486;10.218;2023-04-01T09:39:09;0.95;;;0.70;;
17844;SDS011;9047;53.486;10.218;2023-04-01T09:41:53;0.80;;;0.70;;
17844;SDS011;9047;53.486;10.218;2023-04-01T09:44:34;1.92;;;0.60;;
17844;SDS011;9047;53.486;10.218;2023-04-01T09:47:08;0.88;;;0.80;;
17844;SDS011;9047;53.486;10.218;2023-04-01T09:49:51;0.60;;;0.60;;
17844;SDS011;9047;53.486;10.218;2023-04-01T09:52:34;1.13;;;0.70;;
17844;SDS011;9047;53.486;10.218;2023-04-01T09:55:19;1.02;;;0.55;;
17844;SDS011;9047;53.486;10.218;2023-04-01T09:58:13;1.23;;;0.73;;
17844;SDS011;9047;53.486;10.218;2023-04-01T10:01:22;1.20;;;0.75;;
17844;SDS011;9047;53.486;10.218;2023-04-01T10:04:40;0.73;;;0.65;;
17844;SDS011;9047;53.486;10.218;2023-04-01T10:07:26;1.00;;;0.90;;
17844;SDS011;9047;53.486;10.218;2023-04-01T10:10:25;0.80;;;0.80;;
17844;SDS011;9047;53.486;10.218;2023-04-01T10:13:28;1.92;;;0.90;;
17844;SDS011;9047;53.486;10.218;2023-04-01T10:16:27;1.05;;;0.80;;
17844;SDS011;9047;53.486;10.218;2023-04-01T10:19:39;0.60;;;0.60;;
17844;SDS011;9047;53.486;10.218;2023-04-01T10:22:30;0.65;;;0.65;;
17844;SDS011;9047;53.486;10.218;2023-04-01T10:25:24;1.27;;;0.70;;
17844;SDS011;9047;53.486;10.218;2023-04-01T10:28:10;1.63;;;0.80;;
17844;SDS011;9047;53.486;10.218;2023-04-01T10:31:05;0.73;;;0.60;;
17844;SDS011;9047;53.486;10.218;2023-04-01T10:37:03;0.73;;;0.70;;
17844;SDS011;9047;53.486;10.218;2023-04-01T10:40:03;0.68;;;0.60;;
17844;SDS011;9047;53.486;10.218;2023-04-01T10:42:55;0.60;;;0.60;;
17844;SDS011;9047;53.486;10.218;2023-04-01T10:46:07;0.93;;;0.65;;
17844;SDS011;9047;53.486;10.218;2023-04-01T10:55:26;0.65;;;0.60;;
17844;SDS011;9047;53.486;10.218;2023-04-01T11:01:22;0.75;;;0.75;;
17844;SDS011;9047;53.486;10.218;2023-04-01T11:13:45;1.45;;;0.80;;
17844;SDS011;9047;53.486;10.218;2023-04-01T11:16:50;1.33;;;0.70;;
17844;SDS011;9047;53.486;10.218;2023-04-01T11:19:40;0.70;;;0.70;;
17844;SDS011;9047;53.486;10.218;2023-04-01T11:22:34;0.88;;;0.70;;
17844;SDS011;9047;53.486;10.218;2023-04-01T11:25:25;0.70;;;0.68;;
17844;SDS011;9047;53.486;10.218;2023-04-01T11:28:18;0.85;;;0.70;;
17844;SDS011;9047;53.486;10.218;2023-04-01T11:31:11;1.30;;;0.90;;
17844;SDS011;9047;53.486;10.218;2023-04-01T11:33:53;0.82;;;0.80;;
17844;SDS011;9047;53.486;10.218;2023-04-01T11:36:31;0.90;;;0.80;;
17844;SDS011;9047;53.486;10.218;2023-04-01T11:39:11;0.90;;;0.80;;
17844;SDS011;9047;53.486;10.218;2023-04-01T11:41:54;1.20;;;1.10;;
17844;SDS011;9047;53.486;10.218;2023-04-01T11:44:30;1.48;;;1.20;;
17844;SDS011;9047;53.486;10.218;2023-04-01T11:47:06;1.60;;;1.27;;
17844;SDS011;9047;53.486;10.218;2023-04-01T11:49:47;3.03;;;1.90;;
17844;SDS011;9047;53.486;10.218;2023-04-01T11:52:27;3.17;;;1.67;;
17844;SDS011;9047;53.486;10.218;2023-04-01T11:55:18;1.88;;;1.45;;
17844;SDS011;9047;53.486;10.218;2023-04-01T12:01:00;4.20;;;1.83;;
17844;SDS011;9047;53.486;10.218;2023-04-01T12:03:54;2.50;;;1.70;;
17844;SDS011;9047;53.486;10.218;2023-04-01T12:06:57;5.63;;;2.30;;
17844;SDS011;9047;53.486;10.218;2023-04-01T12:09:42;2.63;;;1.98;;
17844;SDS011;9047;53.486;10.218;2023-04-01T12:12:17;2.35;;;1.80;;
17844;SDS011;9047;53.486;10.218;2023-04-01T12:14:54;3.75;;;1.90;;
17844;SDS011;9047;53.486;10.218;2023-04-01T12:17:33;3.25;;;1.90;;
17844;SDS011;9047;53.486;10.218;2023-04-01T12:20:18;3.17;;;1.75;;
17844;SDS011;9047;53.486;10.218;2023-04-01T12:22:56;2.90;;;1.83;;
17844;SDS011;9047;53.486;10.218;2023-04-01T12:25:42;1.83;;;1.60;;
17844;SDS011;9047;53.486;10.218;2023-04-01T12:28:37;2.17;;;1.55;;
17844;SDS011;9047;53.486;10.218;2023-04-01T12:31:17;2.78;;;1.75;;
17844;SDS011;9047;53.486;10.218;2023-04-01T12:34:00;3.00;;;1.90;;
17844;SDS011;9047;53.486;10.218;2023-04-01T12:36:49;2.92;;;2.00;;
17844;SDS011;9047;53.486;10.218;2023-04-01T12:39:33;3.58;;;1.98;;
17844;SDS011;9047;53.486;10.218;2023-04-01T12:42:16;3.70;;;1.80;;
17844;SDS011;9047;53.486;10.218;2023-04-01T12:45:02;3.53;;;2.10;;
17844;SDS011;9047;53.486;10.218;2023-04-01T12:50:52;3.42;;;2.00;;
17844;SDS011;9047;53.486;10.218;2023-04-01T12:53:46;3.10;;;2.30;;
17844;SDS011;9047;53.486;10.218;2023-04-01T12:56:29;3.65;;;2.20;;
17844;SDS011;9047;53.486;10.218;2023-04-01T12:59:27;3.75;;;2.53;;
17844;SDS011;9047;53.486;10.218;2023-04-01T13:02:11;4.03;;;2.33;;
17844;SDS011;9047;53.486;10.218;2023-04-01T13:07:54;4.80;;;2.50;;
17844;SDS011;9047;53.486;10.218;2023-04-01T13:10:27;4.85;;;2.50;;
17844;SDS011;9047;53.486;10.218;2023-04-01T13:13:12;3.35;;;2.40;;
17844;SDS011;9047;53.486;10.218;2023-04-01T13:15:51;4.05;;;2.47;;
17844;SDS011;9047;53.486;10.218;2023-04-01T13:18:22;4.45;;;2.28;;
17844;SDS011;9047;53.486;10.218;2023-04-01T13:20:59;6.03;;;2.67;;
17844;SDS011;9047;53.486;10.218;2023-04-01T13:23:38;4.00;;;2.13;;
17844;SDS011;9047;53.486;10.218;2023-04-01T13:26:18;4.50;;;2.28;;
17844;SDS011;9047;53.486;10.218;2023-04-01T13:28:50;3.72;;;1.77;;
17844;SDS011;9047;53.486;10.218;2023-04-01T13:31:27;2.88;;;1.88;;
17844;SDS011;9047;53.486;10.218;2023-04-01T13:34:19;3.83;;;2.08;;
17844;SDS011;9047;53.486;10.218;2023-04-01T13:36:57;3.40;;;2.00;;
17844;SDS011;9047;53.486;10.218;2023-04-01T13:39:42;3.88;;;1.95;;
17844;SDS011;9047;53.486;10.218;2023-04-01T13:42:22;4.20;;;1.98;;
17844;SDS011;9047;53.486;10.218;2023-04-01T13:44:54;3.47;;;2.35;;
17844;SDS011;9047;53.486;10.218;2023-04-01T13:50:54;4.30;;;1.90;;
17844;SDS011;9047;53.486;10.218;2023-04-01T13:53:42;3.85;;;1.90;;
17844;SDS011;9047;53.486;10.218;2023-04-01T13:56:34;3.00;;;1.77;;
17844;SDS011;9047;53.486;10.218;2023-04-01T14:02:13;2.90;;;1.98;;
17844;SDS011;9047;53.486;10.218;2023-04-01T14:05:12;3.50;;;2.22;;
17844;SDS011;9047;53.486;10.218;2023-04-01T14:08:00;4.03;;;2.20;;
17844;SDS011;9047;53.486;10.218;2023-04-01T14:10:38;3.72;;;2.10;;
17844;SDS011;9047;53.486;10.218;2023-04-01T14:13:12;4.75;;;2.22;;
17844;SDS011;9047;53.486;10.218;2023-04-01T14:15:53;4.47;;;2.60;;
17844;SDS011;9047;53.486;10.218;2023-04-01T14:18:40;6.10;;;2.72;;
17844;SDS011;9047;53.486;10.218;2023-04-01T14:21:21;6.47;;;2.40;;
17844;SDS011;9047;53.486;10.218;2023-04-01T14:23:59;4.72;;;2.67;;
17844;SDS011;9047;53.486;10.218;2023-04-01T14:26:57;5.47;;;2.70;;
17844;SDS011;9047;53.486;10.218;2023-04-01T14:30:07;5.63;;;2.90;;
17844;SDS011;9047;53.486;10.218;2023-04-01T14:32:49;5.40;;;3.00;;
17844;SDS011;9047;53.486;10.218;2023-04-01T14:35:29;3.88;;;2.88;;
17844;SDS011;9047;53.486;10.218;2023-04-01T14:40:56;5.78;;;2.72;;
17844;SDS011;9047;53.486;10.218;2023-04-01T14:43:38;4.25;;;2.38;;
17844;SDS011;9047;53.486;10.218;2023-04-01T14:49:30;5.43;;;2.53;;
17844;SDS011;9047;53.486;10.218;2023-04-01T14:52:04;4.60;;;2.70;;
17844;SDS011;9047;53.486;10.218;2023-04-01T14:54:37;4.57;;;2.92;;
17844;SDS011;9047;53.486;10.218;2023-04-01T14:57:10;6.43;;;3.25;;
17844;SDS011;9047;53.486;10.218;2023-04-01T14:59:41;6.28;;;3.25;;
17844;SDS011;9047;53.486;10.218;2023-04-01T15:05:14;7.88;;;3.53;;
17844;SDS011;9047;53.486;10.218;2023-04-01T15:07:58;5.03;;;3.30;;
17844;SDS011;9047;53.486;10.218;2023-04-01T15:10:42;7.70;;;3.85;;
17844;SDS011;9047;53.486;10.218;2023-04-01T15:13:33;6.72;;;3.70;;
17844;SDS011;9047;53.486;10.218;2023-04-01T15:16:18;7.72;;;3.45;;
17844;SDS011;9047;53.486;10.218;2023-04-01T15:18:56;5.13;;;3.15;;
17844;SDS011;9047;53.486;10.218;2023-04-01T15:21:37;6.75;;;2.88;;
17844;SDS011;9047;53.486;10.218;2023-04-01T15:24:41;6.28;;;3.63;;
17844;SDS011;9047;53.486;10.218;2023-04-01T15:27:18;8.90;;;3.45;;
17844;SDS011;9047;53.486;10.218;2023-04-01T15:30:13;6.93;;;3.15;;
17844;SDS011;9047;53.486;10.218;2023-04-01T15:33:07;6.43;;;3.90;;
17844;SDS011;9047;53.486;10.218;2023-04-01T15:35:59;7.50;;;3.67;;
17844;SDS011;9047;53.486;10.218;2023-04-01T15:38:33;8.20;;;3.83;;
17844;SDS011;9047;53.486;10.218;2023-04-01T15:41:07;8.00;;;3.47;;
17844;SDS011;9047;53.486;10.218;2023-04-01T15:43:41;6.22;;;3.50;;
17844;SDS011;9047;53.486;10.218;2023-04-01T15:46:14;8.32;;;3.42;;
17844;SDS011;9047;53.486;10.218;2023-04-01T15:48:56;7.90;;;3.97;;
17844;SDS011;9047;53.486;10.218;2023-04-01T15:54:45;6.90;;;3.88;;
17844;SDS011;9047;53.486;10.218;2023-04-01T15:57:24;7.28;;;3.55;;
17844;SDS011;9047;53.486;10.218;2023-04-01T16:00:18;8.63;;;3.88;;
17844;SDS011;9047;53.486;10.218;2023-04-01T16:02:56;7.80;;;4.00;;
17844;SDS011;9047;53.486;10.218;2023-04-01T16:05:37;9.30;;;3.97;;
17844;SDS011;9047;53.486;10.218;2023-04-01T16:08:23;6.85;;;4.20;;
17844;SDS011;9047;53.486;10.218;2023-04-01T16:11:09;9.13;;;3.95;;
17844;SDS011;9047;53.486;10.218;2023-04-01T16:13:46;9.75;;;4.00;;
17844;SDS011;9047;53.486;10.218;2023-04-01T16:16:23;9.23;;;3.97;;
17844;SDS011;9047;53.486;10.218;2023-04-01T16:19:01;6.25;;;3.90;;
17844;SDS011;9047;53.486;10.218;2023-04-01T16:21:37;8.50;;;4.15;;
17844;SDS011;9047;53.486;10.218;2023-04-01T16:24:17;10.77;;;3.92;;
17844;SDS011;9047;53.486;10.218;2023-04-01T16:26:51;8.63;;;4.00;;
17844;SDS011;9047;53.486;10.218;2023-04-01T16:29:24;7.53;;;3.65;;
17844;SDS011;9047;53.486;10.218;2023-04-01T16:31:55;9.07;;;4.05;;
17844;SDS011;9047;53.486;10.218;2023-04-01T16:34:30;7.93;;;3.65;;
17844;SDS011;9047;53.486;10.218;2023-04-01T16:37:04;7.20;;;3.80;;
17844;SDS011;9047;53.486;10.218;2023-04-01T16:39:43;7.00;;;3.80;;
17844;SDS011;9047;53.486;10.218;2023-04-01T16:42:28;7.53;;;3.60;;
17844;SDS011;9047;53.486;10.218;2023-04-01T16:45:15;7.85;;;3.70;;
17844;SDS011;9047;53.486;10.218;2023-04-01T16:47:55;8.90;;;3.80;;
17844;SDS011;9047;53.486;10.218;2023-04-01T16:53:19;7.93;;;3.78;;
17844;SDS011;9047;53.486;10.218;2023-04-01T16:56:02;8.85;;;4.00;;
17844;SDS011;9047;53.486;10.218;2023-04-01T16:58:36;9.50;;;4.15;;
17844;SDS011;9047;53.486;10.218;2023-04-01T17:01:06;8.55;;;3.95;;
17844;SDS011;9047;53.486;10.218;2023-04-01T17:03:38;8.00;;;4.30;;
17844;SDS011;9047;53.486;10.218;2023-04-01T17:06:13;6.70;;;3.90;;
17844;SDS011;9047;53.486;10.218;2023-04-01T17:09:11;8.45;;;4.32;;